Time;durP1;ratioP1;P1;durP2;ratioP2;P2;SDS_P1;SDS_P2;PMS_P1;PMS_P2;Temp;Humidity;BMP_temperature;BMP_pressure;BME280_temperature;BME280_humidity;BME280_pressure;Samples;Min_cycle;Max_cycle;Signal;HPM_P1;HPM_P2
2022/09/03 00:02:44;;;;;;;1.80;1.70;;;17.00;99.90;;;;;;5037703;28;20415;-75
2022/09/03 00:05:31;;;;;;;2.80;1.90;;;17.10;99.90;;;;;;5022654;28;20404;-75
2022/09/03 00:08:11;;;;;;;2.83;1.80;;;17.00;99.90;;;;;;5042149;28;20405;-75
2022/09/03 00:10:48;;;;;;;2.15;1.95;;;17.10;99.90;;;;;;5040906;28;20975;-75
2022/09/03 00:13:23;;;;;;;5.53;1.90;;;17.10;99.90;;;;;;5041275;28;21070;-75
2022/09/03 00:15:52;;;;;;;1.80;1.60;;;17.20;99.90;;;;;;5038691;28;20390;-74
2022/09/03 00:18:24;;;;;;;2.70;2.03;;;17.40;99.90;;;;;;5032361;28;20410;-74
2022/09/03 00:21:07;;;;;;;2.00;1.80;;;17.30;99.90;;;;;;5036856;28;20486;-74
2022/09/03 00:23:36;;;;;;;2.70;1.63;;;17.20;99.90;;;;;;5035351;28;20411;-75
2022/09/03 00:26:11;;;;;;;1.98;1.88;;;17.30;99.90;;;;;;5039457;28;20405;-75
2022/09/03 00:28:55;;;;;;;2.00;1.90;;;17.20;99.90;;;;;;5038461;28;20896;-74
2022/09/03 00:31:32;;;;;;;2.47;2.00;;;17.20;99.90;;;;;;5031083;28;20489;-74
2022/09/03 00:34:19;;;;;;;2.45;2.00;;;17.30;99.90;;;;;;5037635;28;20409;-74
2022/09/03 00:36:45;;;;;;;2.45;2.20;;;17.30;99.90;;;;;;5036747;28;20403;-74
2022/09/03 00:39:21;;;;;;;3.50;1.95;;;17.30;99.90;;;;;;5041725;28;20420;-74
2022/09/03 00:42:24;;;;;;;4.17;2.10;;;17.30;99.90;;;;;;5019635;28;20491;-74
2022/09/03 00:44:56;;;;;;;2.90;1.90;;;17.30;99.90;;;;;;5041749;28;20506;-74
2022/09/03 00:47:45;;;;;;;3.20;1.98;;;17.20;99.90;;;;;;5034900;28;20391;-74
2022/09/03 00:50:42;;;;;;;2.67;1.90;;;17.20;99.90;;;;;;5024771;28;20385;-74
2022/09/03 00:53:31;;;;;;;2.00;1.90;;;17.20;99.90;;;;;;5044305;28;20409;-74
2022/09/03 00:56:18;;;;;;;2.03;1.90;;;17.10;99.90;;;;;;5037524;28;20412;-75
2022/09/03 00:59:10;;;;;;;2.60;2.40;;;17.20;99.90;;;;;;5034807;28;20901;-74
2022/09/03 01:01:54;;;;;;;2.75;2.10;;;17.10;99.90;;;;;;5037511;28;20889;-74
2022/09/03 01:04:37;;;;;;;4.10;2.20;;;17.00;99.90;;;;;;5021681;28;20401;-74
2022/09/03 01:07:18;;;;;;;3.08;1.92;;;17.10;99.90;;;;;;5042683;28;20409;-75
2022/09/03 01:10:03;;;;;;;2.35;2.15;;;17.20;99.90;;;;;;5045567;28;20476;-75
2022/09/03 01:12:51;;;;;;;2.30;2.10;;;17.20;99.90;;;;;;5025938;28;20960;-72
2022/09/03 01:15:20;;;;;;;2.30;2.10;;;17.10;99.90;;;;;;5031057;28;20414;-72
2022/09/03 01:17:57;;;;;;;3.22;2.35;;;17.10;99.90;;;;;;5030259;28;20409;-74
2022/09/03 01:20:46;;;;;;;2.17;2.08;;;17.30;99.90;;;;;;5024676;28;20416;-74
2022/09/03 01:23:34;;;;;;;2.40;2.20;;;17.10;99.90;;;;;;5038914;28;20410;-74
2022/09/03 01:26:26;;;;;;;3.78;2.00;;;17.10;99.90;;;;;;5044837;28;20401;-74
2022/09/03 01:29:24;;;;;;;2.55;2.20;;;17.10;99.90;;;;;;5037483;28;20406;-74
2022/09/03 01:32:25;;;;;;;2.35;2.15;;;17.00;99.90;;;;;;5045315;28;20386;-74
2022/09/03 01:35:07;;;;;;;2.10;2.00;;;17.00;99.90;;;;;;5047727;28;20513;-74
2022/09/03 01:37:56;;;;;;;2.38;2.17;;;17.00;99.90;;;;;;5033566;28;20999;-74
2022/09/03 01:40:39;;;;;;;3.15;2.33;;;17.00;99.90;;;;;;5033576;28;20501;-74
2022/09/03 01:43:34;;;;;;;2.70;2.50;;;17.20;99.90;;;;;;5039943;28;20939;-74
2022/09/03 01:46:18;;;;;;;2.70;2.35;;;17.20;99.90;;;;;;5044575;28;20420;-74
2022/09/03 01:48:50;;;;;;;2.53;2.33;;;17.20;99.90;;;;;;5045444;28;20404;-74
2022/09/03 01:51:28;;;;;;;2.70;2.50;;;17.10;99.90;;;;;;5022489;28;20391;-74
2022/09/03 01:54:29;;;;;;;2.28;2.13;;;17.30;99.90;;;;;;5036015;28;20391;-74
2022/09/03 01:57:37;;;;;;;2.57;2.37;;;17.20;99.90;;;;;;5052977;28;20381;-75
2022/09/03 02:00:14;;;;;;;4.72;2.50;;;17.30;99.90;;;;;;5053148;28;20377;-75
2022/09/03 02:02:42;;;;;;;3.07;2.40;;;17.20;99.90;;;;;;5052654;28;20514;-74
2022/09/03 02:05:24;;;;;;;3.80;2.50;;;17.20;99.90;;;;;;5052862;28;20377;-74
2022/09/03 02:08:00;;;;;;;2.30;2.10;;;17.10;99.90;;;;;;5052804;28;20400;-74
2022/09/03 02:10:33;;;;;;;2.28;2.08;;;17.10;99.90;;;;;;5052973;28;20440;-75
2022/09/03 02:13:14;;;;;;;2.50;2.20;;;17.10;99.90;;;;;;5052502;28;20389;-75
2022/09/03 02:15:44;;;;;;;3.10;2.40;;;17.10;99.90;;;;;;5052814;28;20392;-75
2022/09/03 02:18:16;;;;;;;2.85;2.55;;;17.00;99.90;;;;;;5052695;28;20492;-74
2022/09/03 02:20:42;;;;;;;2.50;2.30;;;17.10;99.90;;;;;;5052512;28;20386;-75
2022/09/03 02:23:08;;;;;;;2.47;2.28;;;17.00;99.90;;;;;;5034621;28;20559;-75
2022/09/03 02:25:37;;;;;;;2.40;2.20;;;17.00;99.90;;;;;;5052763;28;20389;-75
2022/09/03 02:28:05;;;;;;;2.67;2.47;;;17.00;99.90;;;;;;5052636;28;20378;-75
2022/09/03 02:30:30;;;;;;;2.90;2.70;;;16.90;99.90;;;;;;5052607;28;20400;-76
2022/09/03 02:32:56;;;;;;;2.60;2.40;;;17.00;99.90;;;;;;5052374;28;20460;-75
2022/09/03 02:35:22;;;;;;;3.40;2.60;;;17.10;99.90;;;;;;5052561;28;20381;-74
2022/09/03 02:37:47;;;;;;;3.37;3.07;;;17.10;99.90;;;;;;5052292;28;20946;-75
2022/09/03 02:40:13;;;;;;;3.33;2.83;;;17.30;99.90;;;;;;5052478;28;20385;-74
2022/09/03 02:42:38;;;;;;;4.30;2.80;;;17.30;99.90;;;;;;5052703;28;20440;-73
2022/09/03 02:45:21;;;;;;;2.90;2.70;;;17.30;99.90;;;;;;5052284;28;20950;-73
2022/09/03 02:47:51;;;;;;;2.70;2.50;;;17.30;99.90;;;;;;5051113;28;20952;-73
2022/09/03 02:50:16;;;;;;;3.00;2.80;;;17.30;99.90;;;;;;5052013;28;20466;-73
2022/09/03 02:52:42;;;;;;;4.13;3.10;;;17.30;99.90;;;;;;5033894;28;20385;-73
2022/09/03 02:55:08;;;;;;;3.38;2.80;;;17.30;99.90;;;;;;5034129;28;20756;-73
2022/09/03 02:57:33;;;;;;;2.80;2.60;;;17.30;99.90;;;;;;5051897;28;20377;-73
2022/09/03 02:59:59;;;;;;;3.90;2.90;;;17.30;99.90;;;;;;5051908;28;20447;-73
2022/09/03 03:02:24;;;;;;;3.30;3.00;;;17.20;99.90;;;;;;5051659;28;20473;-73
2022/09/03 03:04:50;;;;;;;2.80;2.60;;;17.10;99.90;;;;;;5051581;28;20386;-73
2022/09/03 03:07:15;;;;;;;3.57;3.10;;;17.20;99.90;;;;;;5051772;28;20871;-73
2022/09/03 03:09:41;;;;;;;3.17;2.97;;;17.20;99.90;;;;;;5033852;28;20389;-73
2022/09/03 03:12:08;;;;;;;4.67;3.00;;;17.20;99.90;;;;;;5033790;28;20385;-73
2022/09/03 03:14:34;;;;;;;3.20;3.00;;;17.20;99.90;;;;;;5051398;28;20389;-73
2022/09/03 03:16:59;;;;;;;3.50;3.20;;;17.20;99.90;;;;;;5051390;28;20887;-73
2022/09/03 03:19:25;;;;;;;3.20;2.97;;;17.20;99.90;;;;;;5033038;28;20906;-73
2022/09/03 03:21:50;;;;;;;4.00;3.45;;;17.20;99.90;;;;;;5051664;28;20409;-72
2022/09/03 03:24:16;;;;;;;4.53;3.07;;;17.20;99.90;;;;;;5052289;28;20390;-73
2022/09/03 03:26:41;;;;;;;3.50;3.20;;;17.20;99.90;;;;;;5051506;28;20443;-73
2022/09/03 03:29:07;;;;;;;3.73;3.43;;;17.20;99.90;;;;;;5051392;28;20381;-73
2022/09/03 03:31:33;;;;;;;4.40;2.90;;;17.20;99.90;;;;;;5051441;28;20407;-73
2022/09/03 03:34:02;;;;;;;3.53;3.22;;;17.20;99.90;;;;;;5051402;28;20378;-73
2022/09/03 03:36:30;;;;;;;3.70;3.40;;;17.10;99.90;;;;;;5051733;28;20378;-73
2022/09/03 03:38:58;;;;;;;3.60;3.30;;;17.10;99.90;;;;;;5033560;28;20382;-73
2022/09/03 03:41:26;;;;;;;3.30;3.10;;;17.00;99.90;;;;;;5051586;28;20397;-73
2022/09/03 03:43:56;;;;;;;4.10;3.03;;;16.90;99.90;;;;;;5051114;28;20401;-73
2022/09/03 03:46:23;;;;;;;3.72;3.42;;;16.90;99.90;;;;;;5051477;28;20389;-73
2022/09/03 03:48:50;;;;;;;4.10;3.80;;;16.80;99.90;;;;;;5051352;28;20381;-73
2022/09/03 03:51:16;;;;;;;3.40;3.20;;;16.90;99.90;;;;;;5051418;28;20382;-73
2022/09/03 03:53:41;;;;;;;3.80;3.50;;;16.90;99.90;;;;;;5051074;28;20386;-73
2022/09/03 03:56:11;;;;;;;3.50;3.20;;;17.00;99.90;;;;;;5033362;28;20389;-73
2022/09/03 03:58:37;;;;;;;3.60;3.30;;;16.90;99.90;;;;;;5032929;28;20447;-73
2022/09/03 04:01:12;;;;;;;4.73;3.60;;;17.00;99.90;;;;;;5051103;28;20458;-73
2022/09/03 04:03:37;;;;;;;4.10;3.70;;;17.20;99.90;;;;;;5050743;28;20998;-73
2022/09/03 04:06:04;;;;;;;3.97;3.67;;;17.20;99.90;;;;;;5033178;28;20523;-73
2022/09/03 04:08:35;;;;;;;3.80;3.50;;;17.20;99.90;;;;;;5050981;28;20870;-73
2022/09/03 04:11:01;;;;;;;3.78;3.47;;;17.10;99.90;;;;;;5050882;28;20382;-73
2022/09/03 04:13:31;;;;;;;4.03;3.72;;;17.10;99.90;;;;;;5050597;28;20397;-73
2022/09/03 04:16:11;;;;;;;4.30;3.90;;;17.10;99.90;;;;;;5050862;28;20863;-73
2022/09/03 04:18:38;;;;;;;3.75;3.45;;;17.20;99.90;;;;;;5050680;28;20604;-73
2022/09/03 04:21:07;;;;;;;3.60;3.40;;;17.10;99.90;;;;;;5050200;28;20403;-73
2022/09/03 04:23:34;;;;;;;4.38;3.97;;;17.00;99.90;;;;;;5050340;28;20413;-73
2022/09/03 04:26:00;;;;;;;3.90;3.60;;;16.90;99.90;;;;;;5050746;28;20377;-73
2022/09/03 04:28:26;;;;;;;4.00;3.70;;;16.80;99.90;;;;;;5043837;28;20569;-73
2022/09/03 04:30:52;;;;;;;6.00;3.78;;;16.80;99.90;;;;;;5032619;28;20877;-73
2022/09/03 04:33:17;;;;;;;3.97;3.67;;;17.00;99.90;;;;;;5041935;28;20790;-73
2022/09/03 04:35:43;;;;;;;4.30;4.00;;;17.00;99.90;;;;;;5050458;28;20396;-73
2022/09/03 04:38:09;;;;;;;3.90;3.53;;;17.00;99.90;;;;;;5050599;28;20443;-74
2022/09/03 04:40:35;;;;;;;3.90;3.60;;;16.90;99.90;;;;;;5050614;28;20400;-73
2022/09/03 04:43:01;;;;;;;6.35;3.97;;;17.10;99.90;;;;;;5050262;28;20491;-73
2022/09/03 04:45:27;;;;;;;3.67;3.30;;;17.20;99.90;;;;;;5050413;28;20803;-73
2022/09/03 04:47:57;;;;;;;4.07;3.67;;;17.30;99.90;;;;;;5050603;28;20381;-74
2022/09/03 04:50:23;;;;;;;4.72;3.80;;;17.40;99.90;;;;;;5050387;28;20421;-75
2022/09/03 04:52:48;;;;;;;3.63;3.22;;;17.30;99.90;;;;;;5050134;28;20419;-74
2022/09/03 04:55:14;;;;;;;4.00;3.60;;;17.40;99.90;;;;;;5050339;28;20385;-74
2022/09/03 04:57:41;;;;;;;3.87;3.50;;;17.30;99.90;;;;;;5032327;28;20424;-74
2022/09/03 05:00:10;;;;;;;3.50;3.20;;;17.30;99.90;;;;;;5031963;28;20394;-75
2022/09/03 05:02:36;;;;;;;3.30;3.10;;;17.30;99.90;;;;;;5037362;28;20488;-74
2022/09/03 05:05:03;;;;;;;3.80;3.30;;;17.20;99.90;;;;;;5034213;28;20809;-74
2022/09/03 05:07:37;;;;;;;3.70;3.40;;;17.20;99.90;;;;;;5030338;28;20386;-74
2022/09/03 05:10:05;;;;;;;3.78;3.30;;;17.20;99.90;;;;;;5031974;28;20436;-74
2022/09/03 05:12:32;;;;;;;3.60;3.30;;;17.20;99.90;;;;;;5047213;28;20385;-74
2022/09/03 05:14:58;;;;;;;3.33;3.08;;;17.20;99.90;;;;;;5041169;28;20795;-74
2022/09/03 05:17:24;;;;;;;3.58;3.25;;;17.20;99.90;;;;;;5036593;28;20488;-74
2022/09/03 05:19:49;;;;;;;3.40;3.10;;;17.20;99.90;;;;;;5036308;28;20426;-74
2022/09/03 05:22:20;;;;;;;4.17;3.63;;;17.20;99.90;;;;;;5045068;28;20439;-74
2022/09/03 05:24:46;;;;;;;3.80;3.40;;;17.30;99.90;;;;;;5042604;28;20888;-74
2022/09/03 05:27:11;;;;;;;3.37;3.17;;;17.30;99.90;;;;;;5036629;28;20550;-74
2022/09/03 05:29:37;;;;;;;3.27;3.07;;;17.40;99.90;;;;;;5036715;28;20477;-74
2022/09/03 05:32:02;;;;;;;3.50;3.20;;;17.40;99.90;;;;;;5043677;28;20721;-74
2022/09/03 05:34:28;;;;;;;3.57;3.27;;;17.40;99.90;;;;;;5044555;28;20391;-75
2022/09/03 05:36:55;;;;;;;3.20;2.90;;;17.40;99.90;;;;;;5036650;28;21022;-74
2022/09/03 05:39:21;;;;;;;4.03;3.20;;;17.50;99.90;;;;;;5036658;28;20402;-74
2022/09/03 05:41:49;;;;;;;3.40;2.78;;;17.50;99.90;;;;;;5042471;28;20410;-74
2022/09/03 05:44:14;;;;;;;3.10;2.80;;;17.60;99.90;;;;;;5033526;28;20388;-74
2022/09/03 05:46:40;;;;;;;2.90;2.70;;;17.60;99.90;;;;;;5048015;28;20381;-74
2022/09/03 05:49:06;;;;;;;3.13;2.83;;;17.60;99.90;;;;;;5056505;28;20407;-74
2022/09/03 05:51:33;;;;;;;2.80;2.60;;;17.60;99.90;;;;;;5051455;28;20791;-74
2022/09/03 05:53:58;;;;;;;3.50;3.20;;;17.60;99.90;;;;;;5044087;28;20745;-74
2022/09/03 05:56:26;;;;;;;2.63;2.43;;;17.70;99.90;;;;;;5055321;28;20465;-74
2022/09/03 05:58:55;;;;;;;3.70;2.90;;;17.70;99.90;;;;;;5049576;28;20429;-74
2022/09/03 06:01:27;;;;;;;3.05;2.75;;;17.70;99.90;;;;;;5033998;28;20985;-74
2022/09/03 06:03:58;;;;;;;2.80;2.60;;;17.80;99.90;;;;;;5026394;28;20498;-74
2022/09/03 06:06:26;;;;;;;3.13;2.92;;;17.70;99.90;;;;;;5036397;28;20383;-74
2022/09/03 06:09:03;;;;;;;2.83;2.63;;;17.80;99.90;;;;;;5036147;28;20465;-74
2022/09/03 06:11:30;;;;;;;2.67;2.47;;;17.80;99.90;;;;;;5044814;28;20392;-74
2022/09/03 06:14:00;;;;;;;2.72;2.53;;;17.80;99.90;;;;;;5049706;28;20474;-74
2022/09/03 06:16:26;;;;;;;2.92;2.60;;;17.90;99.90;;;;;;5047209;28;20403;-74
2022/09/03 06:18:52;;;;;;;2.80;2.60;;;18.00;99.90;;;;;;5056311;28;20393;-74
2022/09/03 06:21:17;;;;;;;3.47;2.78;;;18.10;99.90;;;;;;5054483;28;20751;-74
2022/09/03 06:23:50;;;;;;;4.30;2.50;;;18.20;99.90;;;;;;5043598;28;20413;-74
2022/09/03 06:26:16;;;;;;;2.90;2.70;;;18.20;99.90;;;;;;5036044;28;20391;-74
2022/09/03 06:28:43;;;;;;;3.63;2.28;;;18.30;99.90;;;;;;5050699;28;20381;-74
2022/09/03 06:31:13;;;;;;;2.60;2.40;;;18.40;99.90;;;;;;5044388;28;20387;-74
2022/09/03 06:33:41;;;;;;;3.00;2.60;;;18.40;99.90;;;;;;5038440;28;20405;-74
2022/09/03 06:36:08;;;;;;;2.47;2.28;;;18.40;99.90;;;;;;5042497;28;20398;-74
2022/09/03 06:38:38;;;;;;;3.50;2.70;;;18.50;99.90;;;;;;5042122;28;20383;-74
2022/09/03 06:41:20;;;;;;;2.45;2.25;;;18.60;99.90;;;;;;5044426;28;20400;-74
2022/09/03 06:43:46;;;;;;;2.60;2.40;;;18.70;99.90;;;;;;5052191;28;20397;-74
2022/09/03 06:46:15;;;;;;;2.40;2.20;;;18.70;99.90;;;;;;5048190;28;20881;-73
2022/09/03 06:48:41;;;;;;;3.40;2.40;;;18.80;99.90;;;;;;5051690;28;20384;-74
2022/09/03 06:51:09;;;;;;;2.80;2.40;;;18.90;99.90;;;;;;5044152;28;20398;-74
2022/09/03 06:53:37;;;;;;;2.70;2.50;;;18.90;99.90;;;;;;5052250;28;20382;-74
2022/09/03 06:56:06;;;;;;;2.50;2.30;;;19.00;99.90;;;;;;5052423;28;20464;-74
2022/09/03 06:58:37;;;;;;;2.10;2.00;;;19.10;99.90;;;;;;5034315;28;20537;-74
2022/09/03 07:01:08;;;;;;;2.88;2.67;;;19.20;99.90;;;;;;5034457;28;20447;-74
2022/09/03 07:03:34;;;;;;;2.20;2.00;;;19.20;99.90;;;;;;5033965;28;20414;-74
2022/09/03 07:06:05;;;;;;;2.40;2.20;;;19.10;99.90;;;;;;5045756;28;20765;-74
2022/09/03 07:08:32;;;;;;;3.10;2.80;;;19.10;99.90;;;;;;5030429;28;20395;-74
2022/09/03 07:11:07;;;;;;;3.10;2.47;;;19.20;99.90;;;;;;5044827;28;20393;-74
2022/09/03 07:13:34;;;;;;;2.65;2.10;;;19.40;99.90;;;;;;5031799;28;20379;-74
2022/09/03 07:16:02;;;;;;;2.40;2.20;;;19.50;99.90;;;;;;5039100;28;20480;-74
2022/09/03 07:18:28;;;;;;;2.15;2.03;;;19.80;99.90;;;;;;5021380;28;20416;-74
2022/09/03 07:21:06;;;;;;;2.45;2.25;;;19.90;99.90;;;;;;5021065;28;20396;-73
2022/09/03 07:23:32;;;;;;;2.60;2.17;;;19.90;99.90;;;;;;5031767;28;20565;-73
2022/09/03 07:26:00;;;;;;;2.50;2.30;;;20.00;99.90;;;;;;5036489;28;20391;-74
2022/09/03 07:28:27;;;;;;;2.67;2.20;;;19.90;99.90;;;;;;5031765;28;20387;-74
2022/09/03 07:30:54;;;;;;;2.50;2.20;;;19.80;99.90;;;;;;5046339;28;20520;-73
2022/09/03 07:33:20;;;;;;;2.43;2.30;;;20.00;99.90;;;;;;5032996;28;20413;-73
2022/09/03 07:35:46;;;;;;;3.00;2.10;;;20.20;99.90;;;;;;5046050;28;20478;-73
2022/09/03 07:38:16;;;;;;;2.88;2.67;;;20.20;99.90;;;;;;5038197;28;20756;-73
2022/09/03 07:40:42;;;;;;;3.58;2.30;;;20.40;99.90;;;;;;5046359;28;20391;-73
2022/09/03 07:43:08;;;;;;;2.72;1.80;;;20.50;99.90;;;;;;5046314;28;20407;-73
2022/09/03 07:45:33;;;;;;;2.00;1.90;;;20.50;99.90;;;;;;5049461;28;20412;-74
2022/09/03 07:47:59;;;;;;;2.40;1.90;;;20.60;99.90;;;;;;5033494;28;20397;-74
2022/09/03 07:50:25;;;;;;;2.30;2.10;;;20.70;99.90;;;;;;5033325;28;20473;-74
2022/09/03 07:52:57;;;;;;;1.90;1.80;;;20.80;99.90;;;;;;5045992;28;20492;-74
2022/09/03 07:55:24;;;;;;;2.30;1.80;;;20.90;99.90;;;;;;5044332;28;20405;-73
2022/09/03 07:57:53;;;;;;;1.83;1.73;;;21.20;99.90;;;;;;5040938;28;20501;-73
2022/09/03 08:00:19;;;;;;;1.95;1.75;;;21.30;99.90;;;;;;5040380;28;20398;-74
2022/09/03 08:02:44;;;;;;;1.42;1.33;;;21.40;99.90;;;;;;5041304;28;20418;-74
2022/09/03 08:05:10;;;;;;;1.80;1.70;;;21.40;99.90;;;;;;5045589;28;20401;-74
2022/09/03 08:07:35;;;;;;;1.70;1.60;;;21.50;99.90;;;;;;5042672;28;20459;-73
2022/09/03 08:10:01;;;;;;;1.80;1.70;;;21.50;99.90;;;;;;5040090;28;20912;-73
2022/09/03 08:12:27;;;;;;;2.38;2.17;;;21.60;99.90;;;;;;5036129;28;20410;-73
2022/09/03 08:14:53;;;;;;;1.80;1.70;;;21.60;99.90;;;;;;5044087;28;20409;-74
2022/09/03 08:17:18;;;;;;;1.80;1.42;;;21.70;99.90;;;;;;5040503;28;20456;-74
2022/09/03 08:19:44;;;;;;;2.75;1.80;;;21.70;99.90;;;;;;5022012;28;20476;-74
2022/09/03 08:22:10;;;;;;;3.00;1.80;;;21.70;99.90;;;;;;5045081;28;20409;-74
2022/09/03 08:24:36;;;;;;;1.90;1.70;;;21.80;99.90;;;;;;5041856;28;20447;-74
2022/09/03 08:27:02;;;;;;;1.90;1.80;;;21.90;99.90;;;;;;5042363;28;20432;-74
2022/09/03 08:29:27;;;;;;;1.98;1.88;;;21.80;99.90;;;;;;5042308;28;20489;-74
2022/09/03 08:31:53;;;;;;;2.00;1.90;;;21.70;99.90;;;;;;5043846;28;20878;-74
2022/09/03 08:34:19;;;;;;;1.63;1.53;;;21.70;99.90;;;;;;5041684;28;20393;-73
2022/09/03 08:36:45;;;;;;;1.97;1.87;;;21.60;99.90;;;;;;5044245;28;20397;-73
2022/09/03 08:39:12;;;;;;;3.10;1.90;;;21.60;99.90;;;;;;5043358;28;20453;-73
2022/09/03 08:41:50;;;;;;;2.25;1.90;;;21.60;99.90;;;;;;5039436;28;20447;-75
2022/09/03 08:44:15;;;;;;;2.60;1.80;;;21.60;99.90;;;;;;5039824;28;20446;-73
2022/09/03 08:46:56;;;;;;;2.37;2.17;;;21.50;99.90;;;;;;5022766;28;20393;-74
2022/09/03 08:49:45;;;;;;;2.80;2.25;;;21.40;99.90;;;;;;5023948;28;20399;-74
2022/09/03 08:52:32;;;;;;;2.30;2.10;;;21.40;99.90;;;;;;5023887;28;20450;-73
2022/09/03 08:55:20;;;;;;;1.98;1.85;;;21.30;99.90;;;;;;5036666;28;20393;-73
2022/09/03 08:58:08;;;;;;;1.80;1.70;;;21.30;99.90;;;;;;5038851;28;20391;-72
2022/09/03 09:01:00;;;;;;;1.90;1.80;;;21.30;99.90;;;;;;5033639;28;20940;-73
2022/09/03 09:03:50;;;;;;;2.20;2.00;;;20.30;99.90;;;;;;5037285;28;20907;-72
2022/09/03 09:06:43;;;;;;;2.40;2.20;;;19.80;99.90;;;;;;5032141;28;20427;-73
2022/09/03 09:09:14;;;;;;;3.00;2.70;;;19.50;99.90;;;;;;5036366;28;20748;-72
2022/09/03 09:11:55;;;;;;;2.30;2.10;;;19.40;99.90;;;;;;5031762;28;20423;-73
2022/09/03 09:14:42;;;;;;;2.42;2.17;;;19.40;99.90;;;;;;5038770;28;20395;-73
2022/09/03 09:17:23;;;;;;;2.40;2.20;;;19.50;99.90;;;;;;5030047;28;20386;-72
2022/09/03 09:20:10;;;;;;;2.35;2.10;;;19.50;99.90;;;;;;5033643;28;20382;-73
2022/09/03 09:22:43;;;;;;;3.30;2.50;;;19.30;99.90;;;;;;5049683;28;20748;-73
2022/09/03 09:25:13;;;;;;;2.85;2.10;;;19.20;99.90;;;;;;5046567;28;20385;-73
2022/09/03 09:28:00;;;;;;;2.70;2.50;;;19.20;99.90;;;;;;5045889;28;20400;-73
2022/09/03 09:30:30;;;;;;;2.78;2.58;;;19.10;99.90;;;;;;5050164;28;20895;-73
2022/09/03 09:32:55;;;;;;;3.50;2.80;;;19.00;99.90;;;;;;5049972;28;20386;-72
2022/09/03 09:35:22;;;;;;;2.70;2.50;;;18.80;99.90;;;;;;5050205;28;20385;-72
2022/09/03 09:37:59;;;;;;;5.20;3.08;;;18.80;99.90;;;;;;5042351;28;20421;-72
2022/09/03 09:40:42;;;;;;;5.18;3.45;;;18.60;99.90;;;;;;5038397;28;20417;-73
2022/09/03 09:43:14;;;;;;;3.10;2.42;;;18.20;99.90;;;;;;5041540;28;20808;-77
2022/09/03 09:45:48;;;;;;;4.05;2.05;;;17.90;99.90;;;;;;5041038;28;20910;-80
2022/09/03 09:48:25;;;;;;;2.63;2.20;;;17.60;99.90;;;;;;5035295;28;20404;-78
2022/09/03 09:51:04;;;;;;;2.80;2.35;;;17.30;99.90;;;;;;5041785;28;20421;-78
2022/09/03 09:53:29;;;;;;;3.08;2.60;;;17.30;99.90;;;;;;5050642;28;20808;-78
2022/09/03 09:56:01;;;;;;;3.72;3.00;;;17.40;99.90;;;;;;5050805;28;20420;-79
2022/09/03 09:58:38;;;;;;;3.08;2.60;;;17.40;99.90;;;;;;5042312;28;20486;-78
2022/09/03 10:01:13;;;;;;;2.47;2.28;;;17.50;99.90;;;;;;5016593;28;20421;-78
2022/09/03 10:03:54;;;;;;;2.92;2.53;;;17.50;99.90;;;;;;5033835;28;20432;-77
2022/09/03 10:09:10;;;;;;;4.30;3.27;;;17.10;99.90;;;;;;5040631;28;20468;-77
2022/09/03 10:11:39;;;;;;;5.70;3.40;;;17.00;99.90;;;;;;5043493;28;20433;-76
2022/09/03 10:14:17;;;;;;;3.20;2.15;;;16.90;99.90;;;;;;5052568;28;21065;-76
2022/09/03 10:16:47;;;;;;;2.63;1.73;;;16.70;99.90;;;;;;5046011;28;20420;-75
2022/09/03 10:19:22;;;;;;;2.40;1.60;;;16.70;99.90;;;;;;5042850;28;20433;-76
2022/09/03 10:22:02;;;;;;;1.90;0.90;;;16.40;99.90;;;;;;5052915;28;20378;-76
2022/09/03 10:24:38;;;;;;;1.90;1.10;;;16.20;99.90;;;;;;5047532;28;20441;-76
2022/09/03 10:27:09;;;;;;;1.60;1.30;;;16.20;99.90;;;;;;5032811;28;20410;-74
2022/09/03 10:29:39;;;;;;;1.30;1.20;;;16.10;99.90;;;;;;5050913;28;20400;-74
2022/09/03 10:32:24;;;;;;;1.90;1.30;;;16.10;99.90;;;;;;5052468;28;20381;-73
2022/09/03 10:35:07;;;;;;;1.40;1.10;;;16.20;99.90;;;;;;5019473;28;20405;-73
2022/09/03 10:38:02;;;;;;;2.05;1.40;;;16.20;99.90;;;;;;5040299;28;20523;-73
2022/09/03 10:40:39;;;;;;;2.00;1.50;;;16.20;99.90;;;;;;5047558;28;20417;-72
2022/09/03 10:43:42;;;;;;;1.42;1.33;;;16.20;99.90;;;;;;5033817;28;21206;-72
2022/09/03 10:46:25;;;;;;;1.80;1.30;;;16.10;99.90;;;;;;5047704;28;20915;-75
2022/09/03 10:49:12;;;;;;;1.10;0.70;;;16.10;99.90;;;;;;5038270;28;20443;-72
2022/09/03 10:51:40;;;;;;;1.48;0.80;;;16.20;99.90;;;;;;5030272;28;20394;-72
2022/09/03 10:54:45;;;;;;;0.80;0.80;;;16.20;99.90;;;;;;5039932;28;20407;-72
2022/09/03 10:57:53;;;;;;;1.30;0.70;;;16.10;99.90;;;;;;5042577;28;20405;-72
2022/09/03 11:00:21;;;;;;;1.50;0.80;;;16.30;99.90;;;;;;4941129;28;20417;-72
2022/09/03 11:03:06;;;;;;;1.10;0.70;;;16.30;99.90;;;;;;5041315;28;20409;-72
2022/09/03 11:05:58;;;;;;;1.30;0.70;;;16.40;99.90;;;;;;5036523;28;20380;-72
2022/09/03 11:08:41;;;;;;;1.15;0.80;;;16.40;99.90;;;;;;5036810;28;20876;-72
2022/09/03 11:11:34;;;;;;;1.20;1.10;;;16.60;99.90;;;;;;5052343;28;20438;-72
2022/09/03 11:14:08;;;;;;;0.90;0.90;;;16.60;99.90;;;;;;5050707;28;20801;-72
2022/09/03 11:16:45;;;;;;;1.80;0.90;;;16.80;99.90;;;;;;5017478;28;20417;-72
2022/09/03 11:19:15;;;;;;;1.10;1.00;;;16.90;99.90;;;;;;5022747;28;20419;-72
2022/09/03 11:21:42;;;;;;;1.10;1.00;;;17.40;99.90;;;;;;5037669;28;20442;-72
2022/09/03 11:24:22;;;;;;;2.77;0.80;;;17.80;99.90;;;;;;5040446;28;20927;-72
2022/09/03 11:27:20;;;;;;;0.85;0.80;;;18.10;99.90;;;;;;5037990;28;20410;-72
2022/09/03 11:30:06;;;;;;;1.05;0.88;;;18.70;99.90;;;;;;5006499;28;20407;-73
2022/09/03 11:32:51;;;;;;;0.80;0.70;;;19.10;99.90;;;;;;5052614;28;20841;-73
2022/09/03 11:35:37;;;;;;;0.80;0.60;;;19.80;99.90;;;;;;5051312;28;20455;-73
2022/09/03 11:38:19;;;;;;;0.80;0.68;;;20.50;99.90;;;;;;5021636;28;20408;-73
2022/09/03 11:41:09;;;;;;;1.20;0.90;;;20.10;99.90;;;;;;5045901;28;20444;-72
2022/09/03 11:43:35;;;;;;;0.60;0.60;;;20.90;99.90;;;;;;5042652;28;20914;-73
2022/09/03 11:46:24;;;;;;;0.70;0.60;;;21.30;99.90;;;;;;5038872;28;20426;-73
2022/09/03 11:48:54;;;;;;;0.82;0.60;;;21.50;99.90;;;;;;5029556;28;20460;-72
2022/09/03 11:51:42;;;;;;;0.68;0.60;;;21.80;99.90;;;;;;5041514;28;20399;-72
2022/09/03 11:54:19;;;;;;;0.60;0.50;;;21.10;99.90;;;;;;5028290;28;20408;-72
2022/09/03 11:56:46;;;;;;;0.93;0.52;;;20.80;99.90;;;;;;5039388;28;20780;-72
2022/09/03 11:59:12;;;;;;;0.67;0.50;;;20.20;99.90;;;;;;5019548;28;20406;-72
2022/09/03 12:01:52;;;;;;;0.60;0.60;;;19.80;99.90;;;;;;5040249;28;20410;-72
2022/09/03 12:04:21;;;;;;;1.40;0.60;;;19.60;99.90;;;;;;5043679;28;20405;-72
2022/09/03 12:06:55;;;;;;;1.20;0.60;;;19.50;99.90;;;;;;5039303;28;20374;-72
2022/09/03 12:09:38;;;;;;;1.50;0.70;;;19.60;99.90;;;;;;5032743;28;20397;-70
2022/09/03 12:12:26;;;;;;;0.60;0.50;;;20.00;99.90;;;;;;5030825;28;20474;-70
2022/09/03 12:15:01;;;;;;;0.65;0.60;;;19.90;99.90;;;;;;5018789;28;20385;-70
2022/09/03 12:17:33;;;;;;;0.80;0.60;;;19.90;99.90;;;;;;5034742;28;20431;-71
2022/09/03 12:19:58;;;;;;;0.68;0.52;;;19.90;99.90;;;;;;5042106;28;20384;-71
2022/09/03 12:22:27;;;;;;;0.80;0.60;;;20.00;99.90;;;;;;5050399;28;20794;-71
2022/09/03 12:24:53;;;;;;;0.60;0.60;;;20.60;99.90;;;;;;5029259;28;20397;-70
2022/09/03 12:27:25;;;;;;;2.40;0.80;;;21.10;99.90;;;;;;5021878;28;20492;-70
2022/09/03 12:29:59;;;;;;;0.80;0.80;;;21.70;99.90;;;;;;5039684;28;20458;-70
2022/09/03 12:32:30;;;;;;;0.80;0.70;;;21.60;99.90;;;;;;5041363;28;20403;-71
2022/09/03 12:34:56;;;;;;;1.00;0.60;;;21.70;99.90;;;;;;5041984;28;20417;-71
2022/09/03 12:37:24;;;;;;;0.88;0.77;;;21.80;99.90;;;;;;5050142;28;20444;-71
2022/09/03 12:39:52;;;;;;;0.80;0.80;;;21.50;99.90;;;;;;5050130;28;20397;-71
2022/09/03 12:42:27;;;;;;;1.97;0.70;;;20.90;99.90;;;;;;5044909;28;20410;-71
2022/09/03 12:44:52;;;;;;;1.00;0.80;;;20.80;99.90;;;;;;5039781;28;20383;-70
2022/09/03 12:47:20;;;;;;;0.80;0.80;;;20.80;99.90;;;;;;5038798;28;20883;-70
2022/09/03 12:49:51;;;;;;;2.85;0.80;;;20.60;99.90;;;;;;5038982;28;20746;-70
2022/09/03 12:52:32;;;;;;;1.00;0.70;;;21.20;99.90;;;;;;5021002;28;20945;-71
2022/09/03 12:55:32;;;;;;;1.70;0.70;;;21.50;99.90;;;;;;5032345;28;20407;-71
2022/09/03 12:58:10;;;;;;;1.50;1.00;;;21.60;99.90;;;;;;5039962;28;20441;-71
2022/09/03 13:00:53;;;;;;;1.00;0.80;;;21.80;99.90;;;;;;5040148;28;20465;-71
2022/09/03 13:03:22;;;;;;;1.60;0.70;;;21.70;99.90;;;;;;5040017;28;20759;-70
2022/09/03 13:06:07;;;;;;;2.00;0.93;;;21.50;99.90;;;;;;5035203;28;20419;-70
2022/09/03 13:08:43;;;;;;;0.77;0.60;;;21.80;99.90;;;;;;5022411;28;20402;-71
2022/09/03 13:11:09;;;;;;;0.80;0.70;;;21.80;99.90;;;;;;5038559;28;20405;-71
2022/09/03 13:13:36;;;;;;;0.90;0.60;;;21.70;99.90;;;;;;5019782;28;20417;-71
2022/09/03 13:16:08;;;;;;;0.70;0.50;;;21.70;99.90;;;;;;5046582;28;20411;-70
2022/09/03 13:18:54;;;;;;;2.30;0.80;;;21.70;99.90;;;;;;5041211;28;20431;-70
2022/09/03 13:21:34;;;;;;;1.60;0.60;;;21.60;99.90;;;;;;5040616;28;20409;-70
2022/09/03 13:24:18;;;;;;;0.80;0.80;;;22.20;99.90;;;;;;5037612;28;20409;-71